Time;durP1;ratioP1;P1;durP2;ratioP2;P2;SDS_P1;SDS_P2;PMS_P1;PMS_P2;Temp;Humidity;BMP_temperature;BMP_pressure;BME280_temperature;BME280_humidity;BME280_pressure;Samples;Min_cycle;Max_cycle;Signal;HPM_P1;HPM_P2
2021/08/25 00:01:41;;;;;;;;;6.75;5.25;;;;;19.84;45.98;101527.75;5040134;28;47301;-85
2021/08/25 00:04:07;;;;;;;;;9.75;8.00;;;;;19.82;46.28;101511.94;5039731;28;47132;-84
2021/08/25 00:06:32;;;;;;;;;8.00;6.50;;;;;19.50;45.68;101466.31;5051442;28;45701;-87
2021/08/25 00:08:58;;;;;;;;;9.50;7.50;;;;;19.47;46.32;101463.97;5063423;28;46130;-87
2021/08/25 00:11:24;;;;;;;;;7.50;7.00;;;;;19.65;46.35;101500.25;5063841;28;47472;-87
2021/08/25 00:13:50;;;;;;;;;7.25;6.25;;;;;19.45;46.42;101465.91;5065429;28;46542;-87
2021/08/25 00:16:17;;;;;;;;;6.50;6.00;;;;;19.60;46.16;101493.69;5063673;28;45604;-86
2021/08/25 00:22:04;;;;;;;;;6.25;6.25;;;;;19.32;46.34;101452.94;5058350;28;46261;-87
2021/08/25 00:24:29;;;;;;;;;6.75;6.75;;;;;19.29;46.26;101448.72;5056707;28;47053;-85
2021/08/25 00:26:55;;;;;;;;;8.00;8.00;;;;;19.16;46.47;101432.25;5057772;28;45812;-87
2021/08/25 00:29:20;;;;;;;;;5.50;5.50;;;;;19.45;46.45;101489.84;5057472;28;45550;-86
2021/08/25 00:31:46;;;;;;;;;6.75;6.75;;;;;19.39;46.75;101477.94;5060871;28;47527;-86
2021/08/25 00:34:11;;;;;;;;;6.25;5.75;;;;;19.20;46.73;101451.41;5064088;28;46074;-87
2021/08/25 00:36:37;;;;;;;;;7.25;6.25;;;;;19.37;46.55;101473.75;5064405;28;45483;-86
2021/08/25 00:39:03;;;;;;;;;9.50;7.25;;;;;19.41;46.81;101472.47;5064739;28;45413;-86
2021/08/25 00:41:29;;;;;;;;;7.00;7.00;;;;;19.52;46.74;101489.13;5093127;27;48812;-86
2021/08/25 00:43:55;;;;;;;;;9.50;8.25;;;;;19.49;46.68;101493.88;5055039;28;47930;-85
2021/08/25 00:46:20;;;;;;;;;6.75;6.00;;;;;19.47;46.70;101496.69;5054994;28;45657;-86
2021/08/25 00:52:07;;;;;;;;;7.75;7.00;;;;;19.33;47.08;101483.81;5056759;28;46077;-86
2021/08/25 00:54:33;;;;;;;;;7.00;7.00;;;;;19.05;47.23;101436.91;5054864;28;48191;-85
2021/08/25 00:56:59;;;;;;;;;7.50;6.25;;;;;19.22;46.89;101468.03;5055236;28;45898;-86
2021/08/25 00:59:24;;;;;;;;;7.00;6.25;;;;;18.72;46.97;101385.97;5057538;28;45587;-86
2021/08/25 01:01:58;;;;;;;;;7.50;6.00;;;;;19.23;47.18;101470.56;5058017;28;47383;-86
2021/08/25 01:04:48;;;;;;;;;7.75;7.00;;;;;19.33;47.35;101481.16;5074801;28;47177;-85
2021/08/25 01:07:14;;;;;;;;;8.00;8.00;;;;;19.10;47.28;101456.75;5109460;27;45303;-86
2021/08/25 01:09:41;;;;;;;;;7.50;6.75;;;;;18.88;47.30;101417.25;5094949;28;45274;-85
2021/08/25 01:12:09;;;;;;;;;8.50;7.25;;;;;19.28;47.79;101483.41;5110304;27;46802;-86
2021/08/25 01:14:37;;;;;;;;;8.00;6.75;;;;;19.27;47.49;101479.91;5077999;28;45759;-86
2021/08/25 01:17:06;;;;;;;;;5.75;5.50;;;;;19.25;47.74;101484.56;5059783;28;45790;-86
2021/08/25 01:19:41;;;;;;;;;7.00;6.00;;;;;18.88;47.39;101422.56;5093327;27;45594;-87
2021/08/25 01:22:07;;;;;;;;;6.75;6.00;;;;;18.79;47.77;101413.59;5058625;28;48424;-86
2021/08/25 01:24:33;;;;;;;;;6.50;5.50;;;;;18.71;48.11;101410.00;5058203;28;47030;-86
2021/08/25 01:27:00;;;;;;;;;8.00;8.00;;;;;18.97;47.70;101453.56;5091816;27;45788;-86
2021/08/25 01:29:29;;;;;;;;;8.25;8.25;;;;;19.02;47.98;101451.31;5093377;27;45640;-86
2021/08/25 01:31:55;;;;;;;;;8.75;7.25;;;;;19.11;47.92;101471.69;5059584;28;48848;-86
2021/08/25 01:34:21;;;;;;;;;7.25;7.00;;;;;18.87;47.88;101447.44;5060143;28;47543;-86
2021/08/25 01:36:54;;;;;;;;;7.00;6.50;;;;;18.73;48.36;101446.03;5059752;28;45636;-86
2021/08/25 01:39:20;;;;;;;;;7.00;6.75;;;;;18.87;48.36;101447.44;5058935;28;45570;-86
2021/08/25 01:41:46;;;;;;;;;8.00;7.25;;;;;18.90;48.52;101468.38;5057742;28;47584;-86
2021/08/25 01:44:12;;;;;;;;;8.00;7.00;;;;;18.73;48.25;101442.56;5058068;28;47499;-86
2021/08/25 01:46:40;;;;;;;;;7.00;7.00;;;;;18.71;48.72;101440.03;5093068;27;45772;-87
2021/08/25 01:52:27;;;;;;;;;8.00;8.00;;;;;18.57;48.76;101424.53;5075499;28;46087;-87
2021/08/25 01:54:52;;;;;;;;;7.00;7.00;;;;;18.45;48.61;101413.22;5091437;27;48302;-86
2021/08/25 01:57:18;;;;;;;;;8.75;8.00;;;;;18.76;49.26;101476.78;5057138;28;45590;-86
2021/08/25 01:59:43;;;;;;;;;7.75;7.00;;;;;18.48;48.90;101435.13;5091151;27;45944;-86
2021/08/25 02:02:09;;;;;;;;;8.00;8.00;;;;;18.69;48.82;101467.69;5075507;28;45483;-86
2021/08/25 02:04:35;;;;;;;;;7.75;7.00;;;;;18.48;48.83;101435.13;5057379;28;48092;-86
2021/08/25 02:07:00;;;;;;;;;8.00;7.75;;;;;18.64;49.41;101472.59;5075533;28;45782;-86
2021/08/25 02:09:26;;;;;;;;;6.75;6.00;;;;;18.33;49.66;101427.59;5076125;28;45718;-86
2021/08/25 02:11:52;;;;;;;;;7.00;7.00;;;;;18.32;49.15;101422.41;5057605;28;47443;-85
2021/08/25 02:14:17;;;;;;;;;9.50;9.50;;;;;18.52;49.44;101461.22;5097445;27;48201;-86
2021/08/25 02:16:43;;;;;;;;;8.00;7.75;;;;;18.51;49.59;101464.88;5065335;28;45670;-85
2021/08/25 02:22:30;;;;;;;;;8.00;7.00;;;;;18.33;50.04;101440.00;5083193;28;45588;-86
2021/08/25 02:24:56;;;;;;;;;6.50;6.50;;;;;18.18;50.39;101415.72;5065054;28;46734;-85
2021/08/25 02:27:21;;;;;;;;;8.00;7.25;;;;;18.37;49.84;101450.22;5083712;28;45664;-86
2021/08/25 02:29:55;;;;;;;;;8.00;6.00;;;;;18.30;50.52;101451.72;5063968;28;45985;-87
2021/08/25 02:32:23;;;;;;;;;8.75;8.00;;;;;18.18;50.31;101434.28;5059700;28;47526;-86
2021/08/25 02:34:48;;;;;;;;;8.00;7.00;;;;;18.12;50.20;101429.53;5091800;27;47192;-86
2021/08/25 02:37:14;;;;;;;;;9.00;8.50;;;;;18.26;50.19;101454.78;5076146;28;46156;-85
2021/08/25 02:39:40;;;;;;;;;10.50;8.25;;;;;17.70;50.23;101356.47;5075465;28;45540;-85
2021/08/25 02:42:06;;;;;;;;;7.00;6.50;;;;;18.22;50.73;101451.59;5057244;28;48820;-85
2021/08/25 02:44:31;;;;;;;;;8.00;7.25;;;;;17.88;50.59;101410.47;5056819;28;47472;-85
2021/08/25 02:46:57;;;;;;;;;9.75;8.00;;;;;17.88;50.74;101406.03;5057777;28;45711;-85
2021/08/25 02:52:44;;;;;;;;;9.25;8.75;;;;;17.92;51.04;101406.59;5079268;28;45641;-85
2021/08/25 02:55:10;;;;;;;;;7.50;6.75;;;;;18.00;50.96;101423.50;5071771;28;48168;-87
2021/08/25 02:57:35;;;;;;;;;8.50;6.75;;;;;17.83;50.67;101402.09;5072810;28;46018;-86
2021/08/25 03:00:01;;;;;;;;;8.00;8.00;;;;;18.09;51.25;101458.94;5090395;28;45283;-86
2021/08/25 03:02:27;;;;;;;;;7.75;7.00;;;;;18.05;51.43;101449.59;5070539;28;47433;-86
2021/08/25 03:04:53;;;;;;;;;8.00;7.50;;;;;17.66;51.01;101382.38;5080478;28;45958;-87
2021/08/25 03:07:18;;;;;;;;;7.25;7.25;;;;;18.03;51.19;101446.22;5076292;28;45668;-86
2021/08/25 03:09:44;;;;;;;;;10.00;9.00;;;;;17.75;51.25;101402.78;5058148;28;45580;-86
2021/08/25 03:12:09;;;;;;;;;8.50;8.50;;;;;17.68;51.51;101398.16;5091007;27;48769;-86
2021/08/25 03:14:35;;;;;;;;;9.25;8.25;;;;;17.48;51.31;101354.84;5055981;28;47317;-85
2021/08/25 03:17:00;;;;;;;;;8.00;8.00;;;;;17.98;51.60;101443.16;5056202;28;45888;-86
2021/08/25 03:22:48;;;;;;;;;7.25;7.25;;;;;17.79;51.41;101421.91;5075177;28;45968;-85
2021/08/25 03:25:13;;;;;;;;;9.50;8.25;;;;;17.83;51.59;101429.44;5057525;28;47244;-86
2021/08/25 03:27:39;;;;;;;;;10.00;9.00;;;;;17.80;51.90;101432.38;5057195;28;45807;-85
2021/08/25 03:30:06;;;;;;;;;7.50;7.50;;;;;17.78;51.65;101431.66;5074366;28;45708;-85
2021/08/25 03:32:31;;;;;;;;;9.00;9.00;;;;;17.81;51.85;101426.13;5089430;27;48330;-85
2021/08/25 03:34:58;;;;;;;;;8.25;7.25;;;;;17.83;52.27;101434.75;5055622;28;48110;-85
2021/08/25 03:37:23;;;;;;;;;9.00;8.00;;;;;17.44;51.92;101370.16;5056106;28;45808;-84
2021/08/25 03:39:50;;;;;;;;;10.25;7.50;;;;;17.82;51.94;101435.72;5055635;28;45800;-86
2021/08/25 03:42:15;;;;;;;;;7.50;7.00;;;;;17.61;52.29;101395.22;5055405;28;47617;-85
2021/08/25 03:44:41;;;;;;;;;5.00;5.00;;;;;17.62;52.58;101404.84;5055612;28;47176;-84
2021/08/25 03:47:07;;;;;;;;;8.00;7.50;;;;;17.75;52.36;101433.75;5089994;27;46307;-85
2021/08/25 03:52:55;;;;;;;;;7.25;7.00;;;;;17.47;52.34;101392.91;5073636;28;45781;-85
2021/08/25 03:55:22;;;;;;;;;9.00;9.00;;;;;17.50;52.96;101412.00;5055873;28;47207;-85
2021/08/25 03:57:47;;;;;;;;;10.00;9.00;;;;;17.66;53.14;101442.50;5055747;28;45547;-85
2021/08/25 04:00:13;;;;;;;;;8.00;8.00;;;;;17.45;53.14;101414.22;5074318;28;45514;-86
2021/08/25 04:02:39;;;;;;;;;9.50;8.00;;;;;17.39;52.82;101398.88;5073932;28;46451;-85
2021/08/25 04:05:05;;;;;;;;;8.25;8.25;;;;;17.44;52.90;101420.50;5055502;28;45926;-86
2021/08/25 04:07:30;;;;;;;;;9.25;8.00;;;;;17.54;52.77;101424.00;5058380;28;45800;-85
2021/08/25 04:09:55;;;;;;;;;8.00;8.00;;;;;17.40;53.48;101403.19;5077426;28;45858;-86
2021/08/25 04:12:21;;;;;;;;;10.25;7.75;;;;;17.17;53.68;101378.69;5059623;28;47488;-86
2021/08/25 04:14:46;;;;;;;;;9.00;7.25;;;;;17.19;52.98;101397.09;5058917;28;46774;-85
2021/08/25 04:17:11;;;;;;;;;10.75;10.25;;;;;17.16;53.29;101385.00;5067293;28;45791;-86
2021/08/25 04:22:59;;;;;;;;;9.00;8.50;;;;;17.08;53.58;101381.31;5090286;28;45645;-85
2021/08/25 04:25:24;;;;;;;;;13.00;9.00;;;;;17.21;53.26;101397.81;5072198;28;47197;-85
2021/08/25 04:27:50;;;;;;;;;9.50;9.00;;;;;17.25;53.53;101411.63;5104385;27;45609;-86
2021/08/25 04:30:15;;;;;;;;;9.50;9.00;;;;;17.09;53.71;101383.84;5061295;28;45615;-86
2021/08/25 04:32:40;;;;;;;;;11.75;9.75;;;;;17.04;53.44;101366.66;5093420;27;46774;-86
2021/08/25 04:35:06;;;;;;;;;9.50;9.00;;;;;17.34;53.45;101418.78;5059917;28;47031;-86
2021/08/25 04:37:31;;;;;;;;;7.00;7.00;;;;;17.14;53.82;101391.38;5094099;27;45916;-85
2021/08/25 04:39:57;;;;;;;;;11.00;10.00;;;;;16.91;54.07;101366.03;5079227;28;45943;-86
2021/08/25 04:42:22;;;;;;;;;9.25;8.00;;;;;17.27;54.07;101431.75;5078648;28;46945;-86
2021/08/25 04:44:47;;;;;;;;;8.25;7.75;;;;;16.96;53.94;101380.53;5059522;28;47231;-86
2021/08/25 04:47:13;;;;;;;;;9.75;9.00;;;;;17.12;53.84;101409.19;5059775;28;45951;-87
2021/08/25 04:53:03;;;;;;;;;10.00;8.75;;;;;16.87;53.55;101372.56;5077655;28;45975;-86
2021/08/25 04:55:29;;;;;;;;;9.50;8.00;;;;;17.13;54.50;101427.59;5077706;28;46200;-86
2021/08/25 04:57:54;;;;;;;;;9.50;9.50;;;;;16.91;54.29;101389.84;5058034;28;45723;-86
2021/08/25 05:00:20;;;;;;;;;11.50;8.25;;;;;16.81;54.39;101373.91;5091898;27;45945;-85
2021/08/25 05:02:45;;;;;;;;;9.00;9.00;;;;;16.87;53.95;101385.78;5076185;28;46855;-85
2021/08/25 05:08:59;;;;;;;;;9.75;9.00;;;;;17.14;54.13;101428.44;5054036;28;45727;-86
2021/08/25 05:11:24;;;;;;;;;9.00;8.75;;;;;16.73;54.07;101368.44;5057062;28;45783;-85
2021/08/25 05:13:50;;;;;;;;;7.00;7.00;;;;;16.84;54.23;101386.06;5038799;28;48570;-86
2021/08/25 05:16:15;;;;;;;;;9.25;9.00;;;;;17.04;54.15;101409.88;5074009;28;46079;-84
2021/08/25 05:18:41;;;;;;;;;8.75;8.75;;;;;16.72;54.23;101364.13;5041615;28;45863;-86
2021/08/25 05:21:07;;;;;;;;;10.00;9.00;;;;;16.91;54.13;101395.97;5040191;28;45693;-85
2021/08/25 05:23:33;;;;;;;;;10.50;9.50;;;;;16.83;54.69;101384.38;5039384;28;48583;-85
2021/08/25 05:25:59;;;;;;;;;10.25;9.25;;;;;16.90;54.21;101396.09;5056241;28;45838;-87
2021/08/25 05:28:25;;;;;;;;;11.00;9.00;;;;;17.09;54.63;101428.00;5037896;28;45867;-86
2021/08/25 05:30:51;;;;;;;;;11.25;10.00;;;;;16.95;54.64;101418.56;5055119;28;46011;-85
2021/08/25 05:33:16;;;;;;;;;10.00;8.75;;;;;17.07;54.81;101435.22;5053633;28;48322;-86
2021/08/25 05:35:42;;;;;;;;;12.25;10.00;;;;;16.87;54.93;101399.88;5037019;28;47087;-85
2021/08/25 05:38:07;;;;;;;;;13.50;10.00;;;;;16.71;55.00;101381.81;5037015;28;46258;-86
2021/08/25 05:40:32;;;;;;;;;9.25;8.50;;;;;16.69;54.64;101386.38;5036577;28;45874;-85
2021/08/25 05:42:58;;;;;;;;;11.00;10.00;;;;;16.92;54.97;101432.06;5036860;28;48815;-85
2021/08/25 05:45:24;;;;;;;;;10.75;9.50;;;;;16.85;54.75;101415.03;5055041;28;46468;-85
2021/08/25 05:47:49;;;;;;;;;10.50;8.25;;;;;16.94;55.04;101431.97;5036598;28;45615;-85
2021/08/25 05:53:36;;;;;;;;;9.75;8.75;;;;;16.84;55.50;101412.53;5054753;28;45604;-85
2021/08/25 05:56:02;;;;;;;;;9.75;9.75;;;;;16.98;55.29;101441.31;5037328;28;48390;-85
2021/08/25 05:58:27;;;;;;;;;9.75;9.00;;;;;16.96;55.15;101435.28;5054476;28;45567;-85
2021/08/25 06:00:52;;;;;;;;;12.25;11.25;;;;;16.81;54.80;101420.72;5054822;28;45622;-86
2021/08/25 06:03:18;;;;;;;;;10.00;9.75;;;;;16.97;55.33;101447.56;5037189;28;48571;-84
2021/08/25 06:05:43;;;;;;;;;13.75;10.25;;;;;16.67;55.03;101398.06;5036575;28;48206;-85
2021/08/25 06:08:09;;;;;;;;;17.00;12.00;;;;;16.76;55.06;101419.31;5070214;28;45715;-84
2021/08/25 06:10:34;;;;;;;;;12.75;10.50;;;;;16.71;55.13;101404.78;5070350;28;45598;-85
2021/08/25 06:12:59;;;;;;;;;10.00;9.00;;;;;16.97;55.26;101461.66;5054928;28;45562;-85
2021/08/25 06:15:25;;;;;;;;;14.25;11.25;;;;;16.62;55.69;101394.97;5056199;28;46287;-84
2021/08/25 06:17:51;;;;;;;;;12.25;12.00;;;;;16.67;55.33;101404.22;5063939;28;45634;-85
2021/08/25 06:23:38;;;;;;;;;10.50;10.00;;;;;16.98;55.26;101450.09;5066632;28;45528;-85
2021/08/25 06:26:03;;;;;;;;;12.25;10.75;;;;;16.86;55.71;101429.94;5051602;28;45950;-85
2021/08/25 06:28:28;;;;;;;;;10.25;10.00;;;;;16.60;55.07;101375.72;5062637;28;45556;-84
2021/08/25 06:30:54;;;;;;;;;11.25;11.00;;;;;16.94;55.33;101435.44;5039120;28;45768;-85
2021/08/25 06:33:19;;;;;;;;;13.50;11.50;;;;;16.82;55.46;101411.81;5037017;28;48143;-86
2021/08/25 06:35:45;;;;;;;;;9.00;9.00;;;;;16.95;55.41;101428.34;5056042;28;45969;-85
2021/08/25 06:38:10;;;;;;;;;9.25;8.75;;;;;16.82;55.31;101406.50;5037236;28;45777;-85
2021/08/25 06:40:36;;;;;;;;;9.25;9.25;;;;;16.73;55.27;101397.56;5036830;28;46086;-85
2021/08/25 06:43:01;;;;;;;;;11.75;11.25;;;;;16.71;55.77;101387.09;5070836;28;46590;-85
2021/08/25 06:45:26;;;;;;;;;11.50;10.50;;;;;17.07;55.78;101451.13;5036779;28;48293;-86
2021/08/25 06:47:52;;;;;;;;;11.25;10.25;;;;;16.96;55.45;101424.72;5036538;28;46006;-84
2021/08/25 06:53:39;;;;;;;;;13.75;11.75;;;;;16.96;55.15;101422.91;5054586;28;45980;-84
2021/08/25 06:56:05;;;;;;;;;10.00;10.00;;;;;16.98;55.40;101425.44;5036066;28;46702;-84
2021/08/25 06:58:30;;;;;;;;;9.25;9.00;;;;;16.90;55.23;101412.81;5035873;28;45726;-86
2021/08/25 07:00:57;;;;;;;;;12.50;11.75;;;;;16.99;55.45;101429.75;5035878;28;45696;-84
2021/08/25 07:03:22;;;;;;;;;10.75;10.50;;;;;17.10;55.20;101449.06;5069398;28;47451;-86
2021/08/25 07:09:09;;;;;;;;;11.00;10.75;;;;;17.27;55.44;101466.16;5053266;27;45753;-86
2021/08/25 07:11:35;;;;;;;;;11.00;11.00;;;;;16.96;55.46;101420.25;5037102;28;46017;-85
2021/08/25 07:14:01;;;;;;;;;11.00;10.75;;;;;17.11;55.50;101429.53;5036068;28;47490;-85
2021/08/25 07:16:26;;;;;;;;;14.50;11.00;;;;;17.36;54.97;101461.88;5069830;28;47369;-86
2021/08/25 07:18:52;;;;;;;;;14.00;10.00;;;;;17.39;55.40;101449.19;5035627;28;45999;-85
2021/08/25 07:21:18;;;;;;;;;13.00;11.00;;;;;17.42;55.52;101453.41;5053964;28;45687;-86
2021/08/25 07:23:48;;;;;;;;;12.25;11.75;;;;;17.30;55.27;101422.66;5035699;28;48407;-86
2021/08/25 07:26:13;;;;;;;;;12.50;10.00;;;;;17.26;55.08;101408.03;5069098;28;46618;-85
2021/08/25 07:28:43;;;;;;;;;11.75;10.25;;;;;17.52;55.28;101454.28;5068968;28;45498;-84
2021/08/25 07:31:09;;;;;;;;;12.75;12.75;;;;;17.45;55.07;101432.78;5035681;28;45600;-86
2021/08/25 07:33:34;;;;;;;;;11.00;10.00;;;;;17.15;54.90;101377.16;5035319;28;46359;-85
2021/08/25 07:36:01;;;;;;;;;11.00;9.75;;;;;17.61;55.36;101453.50;5069858;28;46621;-85
2021/08/25 07:38:26;;;;;;;;;11.50;9.75;;;;;17.31;54.88;101398.72;5035849;28;45616;-84
2021/08/25 07:40:52;;;;;;;;;11.75;10.75;;;;;17.67;55.29;101454.78;5038690;28;45587;-84
2021/08/25 07:43:17;;;;;;;;;11.50;10.75;;;;;17.71;55.09;101454.38;5072944;28;48507;-86
2021/08/25 07:45:42;;;;;;;;;10.00;9.25;;;;;17.73;54.71;101439.19;5039305;28;47358;-86
2021/08/25 07:48:08;;;;;;;;;9.25;9.00;;;;;17.57;54.84;101410.50;5039824;28;45854;-87
2021/08/25 07:53:55;;;;;;;;;9.00;8.50;;;;;17.78;54.60;101431.66;5057644;28;45977;-84
2021/08/25 07:56:22;;;;;;;;;12.00;10.75;;;;;17.73;54.90;101406.53;5039405;28;47105;-86
2021/08/25 07:58:47;;;;;;;;;12.25;10.00;;;;;17.65;54.70;101385.19;5039399;28;45836;-85
2021/08/25 08:01:13;;;;;;;;;9.00;8.25;;;;;17.83;54.85;101410.91;5073502;28;45570;-86
2021/08/25 08:03:39;;;;;;;;;11.00;10.25;;;;;17.73;54.78;101362.31;5039336;28;47358;-85
2021/08/25 08:09:26;;;;;;;;;9.75;9.00;;;;;17.90;54.50;101387.34;5056789;28;46061;-85
2021/08/25 08:11:51;;;;;;;;;9.75;9.50;;;;;17.96;54.60;101384.13;5073567;28;45786;-85
2021/08/25 08:14:17;;;;;;;;;11.50;9.50;;;;;17.94;54.58;101363.06;5044247;28;48638;-85
2021/08/25 08:16:45;;;;;;;;;13.00;10.50;;;;;18.08;54.50;101385.69;5086559;28;47082;-85
2021/08/25 08:19:19;;;;;;;;;11.00;10.00;;;;;18.36;54.37;101423.81;5071421;28;45457;-85
2021/08/25 08:21:45;;;;;;;;;10.00;9.00;;;;;17.88;54.60;101331.78;5052405;28;45595;-86
2021/08/25 08:24:12;;;;;;;;;11.25;10.25;;;;;18.50;54.56;101412.78;5068564;28;45610;-87
2021/08/25 08:26:38;;;;;;;;;10.50;9.00;;;;;18.05;54.29;101332.91;5046250;28;46064;-87
2021/08/25 08:29:04;;;;;;;;;8.75;8.75;;;;;18.64;54.05;101409.72;5048456;28;46008;-85
2021/08/25 08:31:31;;;;;;;;;12.00;10.00;;;;;18.45;53.96;101376.06;5044041;28;45599;-87
2021/08/25 08:33:57;;;;;;;;;10.75;10.75;;;;;18.34;53.69;101336.41;5042236;28;47854;-86
2021/08/25 08:36:22;;;;;;;;;11.00;11.00;;;;;18.79;54.08;101413.59;5042325;28;46678;-86
2021/08/25 08:38:47;;;;;;;;;10.75;9.75;;;;;18.41;53.62;101357.88;5058837;28;45980;-86
2021/08/25 08:41:13;;;;;;;;;12.50;10.00;;;;;18.90;53.37;101419.72;5041494;28;45898;-84
2021/08/25 08:43:46;;;;;;;;;9.75;9.75;;;;;18.55;53.38;101349.53;5040712;28;48557;-87
2021/08/25 08:46:15;;;;;;;;;10.00;10.00;;;;;18.90;53.50;101395.84;5040502;28;47335;-86
2021/08/25 08:48:42;;;;;;;;;10.50;9.25;;;;;19.04;53.02;101404.22;5057386;28;45578;-87
2021/08/25 08:54:32;;;;;;;;;11.00;9.00;;;;;19.05;53.39;101395.25;5056445;28;45980;-87
2021/08/25 08:56:57;;;;;;;;;9.25;9.00;;;;;19.23;53.11;101411.25;5038670;28;47395;-87
2021/08/25 08:59:23;;;;;;;;;11.00;10.00;;;;;19.29;53.18;101406.22;5038986;28;45714;-86
2021/08/25 09:01:50;;;;;;;;;12.25;10.50;;;;;19.10;52.99;101363.78;5038733;28;45720;-87
2021/08/25 09:04:36;;;;;;;;;10.00;9.75;;;;;19.12;52.78;101359.16;5072182;28;47663;-88
2021/08/25 09:07:02;;;;;;;;;10.50;10.25;;;;;19.46;52.86;101409.13;5038171;28;47557;-85
2021/08/25 09:09:50;;;;;;;;;9.50;9.00;;;;;19.41;52.64;101382.94;5037454;28;45761;-87
2021/08/25 09:12:16;;;;;;;;;12.25;9.50;;;;;19.31;52.56;101358.25;5056764;28;45691;-86
2021/08/25 09:14:41;;;;;;;;;10.50;10.00;;;;;19.33;52.68;101344.78;5071633;28;47481;-85
2021/08/25 09:17:06;;;;;;;;;11.25;10.75;;;;;19.48;52.16;101361.97;5071812;28;48241;-85
2021/08/25 09:19:36;;;;;;;;;10.00;9.50;;;;;19.70;51.74;101396.94;5071862;28;45688;-87
2021/08/25 09:22:16;;;;;;;;;10.00;8.50;;;;;19.66;51.64;101374.31;5038106;28;45694;-85
2021/08/25 09:24:42;;;;;;;;;9.75;9.50;;;;;19.67;51.19;101361.84;5038892;28;48630;-85
2021/08/25 09:27:12;;;;;;;;;8.25;8.00;;;;;19.69;51.19;101358.06;5038438;28;47354;-85
2021/08/25 09:29:40;;;;;;;;;9.50;9.50;;;;;19.52;51.13;101324.31;5038449;28;45752;-87
2021/08/25 09:32:22;;;;;;;;;12.00;9.75;;;;;20.06;51.26;101394.34;5056735;28;45707;-85
2021/08/25 09:34:58;;;;;;;;;12.50;9.75;;;;;19.93;50.97;101372.59;5038183;28;47353;-86
2021/08/25 09:37:26;;;;;;;;;7.00;7.00;;;;;20.07;51.00;101377.41;5065050;28;45594;-86
2021/08/25 09:39:53;;;;;;;;;11.00;10.00;;;;;20.06;50.95;101370.41;5062618;28;45465;-85
2021/08/25 09:42:22;;;;;;;;;9.00;9.00;;;;;20.25;50.80;101396.84;5063229;28;45326;-87
2021/08/25 09:45:07;;;;;;;;;9.00;7.25;;;;;20.13;50.72;101365.31;5063169;28;46860;-87
2021/08/25 09:47:55;;;;;;;;;8.25;7.25;;;;;20.38;50.57;101383.19;5041819;28;47640;-85
2021/08/25 09:50:23;;;;;;;;;8.25;7.00;;;;;20.16;50.57;101355.19;5061026;28;45676;-86
2021/08/25 09:52:51;;;;;;;;;10.00;7.75;;;;;20.46;49.54;101399.22;5042944;28;45744;-87
2021/08/25 09:55:31;;;;;;;;;9.00;8.00;;;;;20.48;49.43;101386.59;5045483;28;47580;-85
2021/08/25 09:57:58;;;;;;;;;8.75;7.75;;;;;20.34;49.49;101357.88;5043355;28;46453;-86
2021/08/25 10:00:23;;;;;;;;;8.00;7.00;;;;;20.41;49.77;101350.94;5040405;28;45764;-87
2021/08/25 10:02:50;;;;;;;;;8.00;7.00;;;;;20.44;49.69;101340.00;5038300;28;45943;-86
2021/08/25 10:05:24;;;;;;;;;9.25;7.00;;;;;20.39;49.15;101334.31;5056332;28;46455;-87
2021/08/25 10:07:51;;;;;;;;;9.00;8.25;;;;;20.38;48.91;101336.13;5057511;28;45673;-86
2021/08/25 10:10:16;;;;;;;;;7.25;7.00;;;;;20.57;48.83;101348.41;5038972;28;45716;-86
2021/08/25 10:12:41;;;;;;;;;8.00;7.50;;;;;20.38;48.66;101311.31;5057950;28;45638;-86
2021/08/25 10:15:39;;;;;;;;;9.00;7.00;;;;;20.81;48.83;101361.91;5074413;28;47317;-86
2021/08/25 10:18:37;;;;;;;;;9.00;8.00;;;;;20.87;48.95;101365.75;5074736;28;47736;-84
2021/08/25 10:21:04;;;;;;;;;9.50;8.00;;;;;20.92;48.89;101372.28;5051170;28;45860;-88
2021/08/25 10:23:57;;;;;;;;;8.75;8.25;;;;;20.98;48.26;101357.50;5072564;28;45648;-89
2021/08/25 10:26:23;;;;;;;;;6.50;6.00;;;;;21.02;48.37;101352.69;5087055;28;48479;-89
2021/08/25 10:29:07;;;;;;;;;8.75;8.00;;;;;21.07;48.29;101345.88;5071036;28;46152;-88
2021/08/25 10:31:48;;;;;;;;;8.25;7.75;;;;;21.12;47.94;101354.22;5047342;28;45760;-86
2021/08/25 10:37:27;;;;;;;;;9.00;8.00;;;;;21.24;47.11;101346.81;4998202;28;46105;-87
2021/08/25 10:39:59;;;;;;;;;7.25;7.00;;;;;21.28;47.57;101348.16;4997582;28;45971;-89
2021/08/25 10:43:02;;;;;;;;;9.25;9.00;;;;;21.33;47.38;101343.19;4980599;28;45778;-87
2021/08/25 10:45:57;;;;;;;;;8.00;8.00;;;;;21.35;47.37;101336.72;4937881;28;45748;-86
2021/08/25 10:48:42;;;;;;;;;8.00;7.50;;;;;21.49;47.31;101324.59;4901589;29;47868;-88
2021/08/25 10:51:40;;;;;;;;;10.50;7.00;;;;;21.55;47.19;101336.44;4906500;29;47481;-90
2021/08/25 10:54:11;;;;;;;;;10.50;8.75;;;;;21.21;46.95;101269.88;4909099;29;45776;-88
2021/08/25 10:57:06;;;;;;;;;8.25;7.00;;;;;21.35;46.76;101282.56;4902146;29;45647;-89
2021/08/25 10:59:31;;;;;;;;;9.00;7.50;;;;;21.45;46.10;101295.75;4901041;29;47635;-88
2021/08/25 11:01:59;;;;;;;;;7.25;7.25;;;;;21.40;45.99;101288.25;4902921;29;46741;-89
2021/08/25 11:04:25;;;;;;;;;9.75;8.75;;;;;21.77;46.19;101328.66;4903400;29;45769;-88
2021/08/25 11:06:51;;;;;;;;;7.50;7.00;;;;;21.82;45.44;101325.50;4905460;29;45752;-89
2021/08/25 11:09:30;;;;;;;;;8.50;7.75;;;;;21.85;44.98;101330.53;4888797;29;47057;-89
2021/08/25 11:11:58;;;;;;;;;10.50;8.25;;;;;21.48;45.57;101247.44;4883534;29;47667;-90
2021/08/25 11:14:28;;;;;;;;;8.75;8.25;;;;;21.91;45.50;101308.53;4884018;29;45768;-88
2021/08/25 11:16:56;;;;;;;;;7.25;7.25;;;;;21.77;45.08;101279.81;4905777;29;45792;-88
2021/08/25 11:19:26;;;;;;;;;9.00;9.00;;;;;22.01;44.74;101305.72;4920964;28;47077;-89
2021/08/25 11:21:52;;;;;;;;;8.00;8.00;;;;;21.89;44.40;101296.34;4961427;28;47221;-90
2021/08/25 11:24:18;;;;;;;;;7.00;6.25;;;;;21.92;44.47;101279.97;4984739;28;45721;-90
2021/08/25 11:26:43;;;;;;;;;10.25;8.25;;;;;22.11;44.71;101303.72;5030631;28;45556;-89
2021/08/25 11:29:19;;;;;;;;;8.00;8.00;;;;;22.16;44.52;101301.38;5030969;28;47495;-90
2021/08/25 11:31:45;;;;;;;;;6.00;6.00;;;;;22.21;44.80;101306.22;5044859;28;46393;-90
2021/08/25 11:34:12;;;;;;;;;8.00;6.00;;;;;22.25;44.80;101295.03;5025524;28;46357;-85
2021/08/25 11:36:54;;;;;;;;;9.00;9.00;;;;;22.27;44.41;101287.69;5025830;28;45776;-88
2021/08/25 11:39:20;;;;;;;;;8.00;8.00;;;;;;;;5044704;28;45781;-89
2021/08/25 11:41:46;;;;;;;;;8.25;7.75;;;;;22.37;43.36;101288.34;5027821;28;48275;-90
2021/08/25 11:44:11;;;;;;;;;7.25;7.00;;;;;22.38;43.27;101276.66;5031495;28;45695;-87
2021/08/25 11:46:37;;;;;;;;;9.25;7.25;;;;;22.43;43.83;101273.47;5027576;28;45586;-88
2021/08/25 11:49:03;;;;;;;;;7.25;7.00;;;;;22.33;42.74;101246.13;5027355;28;47540;-91
2021/08/25 11:51:28;;;;;;;;;7.50;7.00;;;;;22.49;43.74;101280.81;5025191;28;48435;-88
2021/08/25 11:53:54;;;;;;;;;7.00;5.75;;;;;22.38;43.51;101249.97;5026014;28;45917;-88
2021/08/25 11:56:20;;;;;;;;;7.50;7.50;;;;;22.61;42.25;101287.47;5045173;28;45739;-88
2021/08/25 11:58:45;;;;;;;;;8.25;8.00;;;;;22.52;42.52;101259.94;5048466;28;46328;-89
2021/08/25 12:01:21;;;;;;;;;8.25;6.25;;;;;22.69;43.15;101283.94;5048886;28;46224;-87
2021/08/25 12:03:46;;;;;;;;;7.25;6.00;;;;;22.62;43.01;101265.06;5026711;28;45749;-87
2021/08/25 12:06:14;;;;;;;;;9.00;7.75;;;;;22.58;43.10;101242.41;5025901;28;45586;-87
2021/08/25 12:08:49;;;;;;;;;7.75;7.00;;;;;22.81;41.94;101272.75;5027869;28;47663;-86
2021/08/25 12:11:16;;;;;;;;;7.75;7.75;;;;;22.81;42.01;101270.09;5062290;28;45805;-85
2021/08/25 12:13:47;;;;;;;;;8.25;8.00;;;;;22.54;41.38;101217.88;5045060;28;45634;-86
2021/08/25 12:16:32;;;;;;;;;6.75;6.75;;;;;22.88;42.61;101271.06;5064301;28;45549;-86
2021/08/25 12:18:59;;;;;;;;;8.50;8.50;;;;;22.68;42.05;101216.31;5044295;28;48532;-86
2021/08/25 12:21:33;;;;;;;;;10.25;9.00;;;;;22.97;41.67;101279.88;5083645;28;47494;-86
2021/08/25 12:24:06;;;;;;;;;6.50;6.50;;;;;22.73;42.50;101230.00;5050601;28;45985;-86
2021/08/25 12:26:34;;;;;;;;;7.25;6.75;;;;;22.88;41.89;101235.50;5048644;28;45712;-87